createdAt,value
2023-04-06T00:01:04.082Z,100321.00
2023-04-06T00:03:37.103Z,100334.00
2023-04-06T00:06:10.414Z,100338.00
2023-04-06T00:08:44.119Z,100330.00
2023-04-06T00:11:17.004Z,100335.00
2023-04-06T00:13:50.719Z,100332.00
2023-04-06T00:16:25.134Z,100330.00
2023-04-06T00:18:58.231Z,100312.00
2023-04-06T00:21:31.015Z,100307.00
2023-04-06T00:24:03.784Z,100309.00
2023-04-06T00:26:36.559Z,100300.00
2023-04-06T00:29:13.331Z,100294.00
2023-04-06T00:31:47.191Z,100289.00
2023-04-06T00:34:20.018Z,100279.00
2023-04-06T00:36:52.605Z,100293.00
2023-04-06T00:39:25.378Z,100288.00
2023-04-06T00:41:59.459Z,100282.00
2023-04-06T00:44:32.353Z,100288.00
2023-04-06T00:47:05.232Z,100276.00
2023-04-06T00:49:38.792Z,100271.00
2023-04-06T00:52:12.344Z,100259.00
2023-04-06T00:54:45.124Z,100262.00
2023-04-06T00:57:18.760Z,100259.00
2023-04-06T00:59:51.896Z,100253.00
2023-04-06T01:02:24.546Z,100246.00
2023-04-06T01:04:58.158Z,100243.00
2023-04-06T01:07:30.932Z,100239.00
2023-04-06T01:10:03.597Z,100232.00
2023-04-06T01:12:38.865Z,100231.00
2023-04-06T01:15:11.585Z,100221.00
2023-04-06T01:17:44.586Z,100217.00
2023-04-06T01:20:17.577Z,100217.00
2023-04-06T01:22:50.458Z,100210.00
2023-04-06T01:25:23.332Z,100208.00
2023-04-06T01:27:56.084Z,100196.00
2023-04-06T01:30:29.325Z,100196.00
2023-04-06T01:33:02.568Z,100188.00
2023-04-06T01:35:35.909Z,100184.00
2023-04-06T01:38:09.099Z,100177.00
2023-04-06T01:40:42.228Z,100176.00
2023-04-06T01:43:15.041Z,100165.00
2023-04-06T01:45:47.890Z,100170.00
2023-04-06T01:48:21.380Z,100154.00
2023-04-06T01:50:54.630Z,100158.00
2023-04-06T01:53:27.499Z,100153.00
2023-04-06T01:56:01.050Z,100158.00
2023-04-06T01:58:34.491Z,100158.00
2023-04-06T02:01:07.569Z,100151.00
2023-04-06T02:03:40.653Z,100151.00
2023-04-06T02:06:13.601Z,100147.00
2023-04-06T02:08:46.431Z,100144.00
2023-04-06T02:11:19.529Z,100144.00
2023-04-06T02:13:52.435Z,100142.00
2023-04-06T02:16:25.412Z,100135.00
2023-04-06T02:18:58.328Z,100137.00
2023-04-06T02:21:31.178Z,100122.00
2023-04-06T02:24:04.162Z,100127.00
2023-04-06T02:26:37.125Z,100134.00
2023-04-06T02:29:11.296Z,100123.00
2023-04-06T02:31:44.158Z,100126.00
2023-04-06T02:34:18.755Z,100124.00
2023-04-06T02:36:51.924Z,100116.00
2023-04-06T02:39:24.744Z,100110.00
2023-04-06T02:41:58.893Z,100105.00
2023-04-06T02:44:31.722Z,100101.00
2023-04-06T02:47:04.698Z,100101.00
2023-04-06T02:49:37.711Z,100104.00
2023-04-06T02:52:10.566Z,100097.00
2023-04-06T02:54:43.537Z,100096.00
2023-04-06T02:57:17.093Z,100099.00
2023-04-06T02:59:50.846Z,100100.00
2023-04-06T03:02:23.772Z,100096.00
2023-04-06T03:04:56.630Z,100092.00
2023-04-06T03:07:29.410Z,100093.00
2023-04-06T03:10:02.233Z,100080.00
2023-04-06T03:12:35.178Z,100087.00
2023-04-06T03:15:08.096Z,100079.00
2023-04-06T03:17:41.240Z,100075.00
2023-04-06T03:20:14.556Z,100063.00
2023-04-06T03:22:47.543Z,100068.00
2023-04-06T03:25:20.469Z,100064.00
2023-04-06T03:27:53.309Z,100059.00
2023-04-06T03:30:26.020Z,100061.00
2023-04-06T03:32:58.858Z,100057.00
2023-04-06T03:35:36.048Z,100052.00
2023-04-06T03:38:09.347Z,100056.00
2023-04-06T03:40:42.067Z,100052.00
2023-04-06T03:43:14.853Z,100046.00
2023-04-06T03:45:47.703Z,100049.00
2023-04-06T03:48:20.415Z,100049.00
2023-04-06T03:50:53.268Z,100046.00
2023-04-06T03:53:26.164Z,100048.00
2023-04-06T03:55:58.998Z,100048.00
2023-04-06T03:58:31.571Z,100043.00
2023-04-06T04:01:05.475Z,100036.00
2023-04-06T04:03:38.353Z,100025.00
2023-04-06T04:06:14.199Z,100020.00
2023-04-06T04:08:45.310Z,100012.00
2023-04-06T04:11:22.966Z,100010.00
2023-04-06T04:13:55.776Z,100007.00
2023-04-06T04:16:28.782Z,99998.00
2023-04-06T04:19:04.198Z,99994.00
2023-04-06T04:21:37.154Z,100001.00
2023-04-06T04:24:10.674Z,99994.00
2023-04-06T04:26:43.794Z,99989.00
2023-04-06T04:29:16.594Z,99998.00
2023-04-06T04:31:49.420Z,100003.00
2023-04-06T04:34:23.604Z,99993.00
2023-04-06T04:36:56.740Z,99991.00
2023-04-06T04:39:29.603Z,99998.00
2023-04-06T04:42:02.421Z,99990.00
2023-04-06T04:44:35.372Z,99999.00
2023-04-06T04:47:08.182Z,99992.00
2023-04-06T04:49:41.129Z,99989.00
2023-04-06T04:52:13.935Z,99991.00
2023-04-06T04:54:46.681Z,99993.00
2023-04-06T04:57:19.552Z,99996.00
2023-04-06T04:59:54.894Z,99991.00
2023-04-06T05:02:27.874Z,99993.00
2023-04-06T05:05:00.954Z,99991.00
2023-04-06T05:07:33.869Z,100001.00
2023-04-06T05:10:06.802Z,99993.00
2023-04-06T05:12:39.687Z,99986.00
2023-04-06T05:15:13.306Z,99991.00
2023-04-06T05:17:46.216Z,99997.00
2023-04-06T05:20:20.056Z,99996.00
2023-04-06T05:22:53.070Z,99987.00
2023-04-06T05:25:26.041Z,99987.00
2023-04-06T05:27:59.072Z,99979.00
2023-04-06T05:30:32.170Z,99979.00
2023-04-06T05:33:05.213Z,99979.00
2023-04-06T05:35:38.627Z,99975.00
2023-04-06T05:38:15.379Z,99972.00
2023-04-06T05:40:48.311Z,99973.00
2023-04-06T05:43:25.334Z,99968.00
2023-04-06T05:46:00.524Z,99964.00
2023-04-06T05:48:33.317Z,99964.00
2023-04-06T05:51:07.362Z,99960.00
2023-04-06T05:53:40.344Z,99964.00
2023-04-06T05:56:13.453Z,99962.00
2023-04-06T05:58:46.404Z,99966.00
2023-04-06T06:01:19.758Z,99969.00
2023-04-06T06:03:52.790Z,99979.00
2023-04-06T06:06:25.766Z,99977.00
2023-04-06T06:08:59.954Z,99984.00
2023-04-06T06:11:33.086Z,99981.00
2023-04-06T06:14:06.155Z,99986.00
2023-04-06T06:16:39.362Z,99977.00
2023-04-06T06:19:12.285Z,99969.00
2023-04-06T06:21:45.014Z,99974.00
2023-04-06T06:24:17.894Z,99972.00
2023-04-06T06:26:51.723Z,99975.00
2023-04-06T06:29:24.766Z,99973.00
2023-04-06T06:31:57.787Z,99968.00
2023-04-06T06:34:30.667Z,99964.00
2023-04-06T06:37:03.602Z,99968.00
2023-04-06T06:39:36.375Z,99969.00
2023-04-06T06:42:09.197Z,99975.00
2023-04-06T06:44:42.200Z,99969.00
2023-04-06T06:47:15.194Z,99969.00
2023-04-06T06:49:51.614Z,99969.00
2023-04-06T06:52:25.712Z,99963.00
2023-04-06T06:54:59.319Z,99968.00
2023-04-06T06:57:32.230Z,99976.00
2023-04-06T07:00:05.112Z,99978.00
2023-04-06T07:02:39.827Z,99984.00
2023-04-06T07:05:26.088Z,99976.00
2023-04-06T07:07:46.924Z,99972.00
2023-04-06T07:10:19.940Z,99979.00
2023-04-06T07:12:52.633Z,99980.00
2023-04-06T07:15:25.597Z,99983.00
2023-04-06T07:17:58.817Z,99974.00
2023-04-06T07:20:32.079Z,99971.00
2023-04-06T07:23:10.157Z,99960.00
2023-04-06T07:25:43.176Z,99974.00
2023-04-06T07:28:16.161Z,99971.00
2023-04-06T07:30:50.032Z,99977.00
2023-04-06T07:33:23.211Z,99979.00
2023-04-06T07:35:56.433Z,99987.00
2023-04-06T07:38:29.507Z,99992.00
2023-04-06T07:41:02.823Z,99988.00
2023-04-06T07:43:37.917Z,99984.00
2023-04-06T07:46:10.085Z,99986.00
2023-04-06T07:48:42.928Z,99983.00
2023-04-06T07:51:17.198Z,99991.00
2023-04-06T07:53:52.899Z,99984.00
2023-04-06T07:56:25.907Z,99992.00
2023-04-06T07:59:00.030Z,99987.00
2023-04-06T08:01:33.479Z,99985.00
2023-04-06T08:04:06.668Z,99984.00
2023-04-06T08:06:39.635Z,99984.00
2023-04-06T08:09:12.522Z,99987.00
2023-04-06T08:11:45.417Z,99984.00
2023-04-06T08:14:19.605Z,99975.00
2023-04-06T08:16:52.653Z,99977.00
2023-04-06T08:19:25.639Z,99976.00
2023-04-06T08:21:58.540Z,99984.00
2023-04-06T08:24:31.454Z,99979.00
2023-04-06T08:27:04.344Z,99972.00
2023-04-06T08:29:37.174Z,99970.00
2023-04-06T08:32:10.096Z,99970.00
2023-04-06T08:34:43.356Z,99957.00
2023-04-06T08:37:16.217Z,99966.00
2023-04-06T08:39:49.123Z,99962.00
2023-04-06T08:42:28.631Z,99956.00
2023-04-06T08:45:02.101Z,99957.00
2023-04-06T08:47:39.335Z,99960.00
2023-04-06T08:50:15.578Z,99957.00
2023-04-06T08:52:49.982Z,99960.00
2023-04-06T08:55:22.969Z,99958.00
2023-04-06T08:57:57.541Z,99959.00
2023-04-06T09:00:32.652Z,99963.00
2023-04-06T09:03:07.584Z,99959.00
2023-04-06T09:05:41.111Z,99966.00
2023-04-06T09:08:14.330Z,99963.00
2023-04-06T09:10:47.250Z,99976.00
2023-04-06T09:13:20.161Z,99981.00
2023-04-06T09:15:54.274Z,99973.00
2023-04-06T09:18:34.576Z,99968.00
2023-04-06T09:21:08.836Z,99965.00
2023-04-06T09:23:42.251Z,99971.00
2023-04-06T09:26:19.714Z,99983.00
2023-04-06T09:28:59.892Z,99975.00
2023-04-06T09:31:35.825Z,99980.00
2023-04-06T09:34:08.912Z,99975.00
2023-04-06T09:36:43.630Z,99969.00
2023-04-06T09:39:17.536Z,99965.00
2023-04-06T09:41:52.478Z,99973.00
2023-04-06T09:44:26.553Z,99966.00
2023-04-06T09:47:01.240Z,99959.00
2023-04-06T09:49:35.365Z,99958.00
2023-04-06T09:52:10.154Z,99962.00
2023-04-06T09:54:44.614Z,99955.00
2023-04-06T09:57:31.452Z,99949.00
2023-04-06T10:00:15.302Z,99943.00
2023-04-06T10:02:50.540Z,99943.00
2023-04-06T10:05:26.031Z,99945.00
2023-04-06T10:08:01.514Z,99936.00
2023-04-06T10:10:34.535Z,99936.00
2023-04-06T10:13:07.961Z,99925.00
2023-04-06T10:15:41.695Z,99926.00
2023-04-06T10:18:15.093Z,99932.00
2023-04-06T10:21:02.118Z,99930.00
2023-04-06T10:23:40.076Z,99928.00
2023-04-06T10:26:15.054Z,99925.00
2023-04-06T10:28:48.542Z,99915.00
2023-04-06T10:31:22.731Z,99917.00
2023-04-06T10:34:03.040Z,99908.00
2023-04-06T10:36:39.685Z,99906.00
2023-04-06T10:39:12.651Z,99894.00
2023-04-06T10:41:51.064Z,99890.00
2023-04-06T10:44:28.348Z,99886.00
2023-04-06T10:47:04.622Z,99877.00
2023-04-06T10:49:40.550Z,99868.00
2023-04-06T10:52:14.428Z,99868.00
2023-04-06T10:54:49.777Z,99865.00
2023-04-06T10:57:23.412Z,99851.00
2023-04-06T10:59:57.860Z,99856.00
2023-04-06T11:02:31.805Z,99858.00
2023-04-06T11:05:04.488Z,99855.00
2023-04-06T11:07:38.802Z,99863.00
2023-04-06T11:10:17.460Z,99856.00
2023-04-06T11:12:47.454Z,99859.00
2023-04-06T11:15:20.288Z,99851.00
2023-04-06T11:17:53.789Z,99855.00
2023-04-06T11:20:27.061Z,99867.00
2023-04-06T11:23:01.017Z,99867.00
2023-04-06T11:25:35.167Z,99873.00
2023-04-06T11:28:08.120Z,99879.00
2023-04-06T11:30:41.428Z,99874.00
2023-04-06T11:33:14.240Z,99873.00
2023-04-06T11:35:47.426Z,99870.00
2023-04-06T11:38:24.104Z,99878.00
2023-04-06T11:40:58.070Z,99881.00
2023-04-06T11:43:36.733Z,99875.00
2023-04-06T11:46:11.411Z,99874.00
2023-04-06T11:48:46.680Z,99867.00
2023-04-06T11:51:21.813Z,99863.00
2023-04-06T11:53:54.643Z,99868.00
2023-04-06T11:56:32.569Z,99860.00
2023-04-06T11:59:05.646Z,99856.00
2023-04-06T12:01:39.317Z,99862.00
2023-04-06T12:04:12.553Z,99857.00
2023-04-06T12:06:46.215Z,99846.00
2023-04-06T12:09:19.913Z,99840.00
2023-04-06T12:11:52.867Z,99840.00
2023-04-06T12:14:27.281Z,99841.00
2023-04-06T12:17:00.513Z,99828.00
2023-04-06T12:19:33.730Z,99832.00
2023-04-06T12:22:06.921Z,99826.00
2023-04-06T12:24:42.122Z,99826.00
2023-04-06T12:27:14.940Z,99820.00
2023-04-06T12:29:48.037Z,99821.00
2023-04-06T12:32:20.960Z,99809.00
2023-04-06T12:34:55.270Z,99806.00
2023-04-06T12:37:29.216Z,99819.00
2023-04-06T12:40:02.241Z,99806.00
2023-04-06T12:42:35.121Z,99792.00
2023-04-06T12:45:07.999Z,99789.00
2023-04-06T12:47:40.918Z,99784.00
2023-04-06T12:50:14.829Z,99785.00
2023-04-06T12:52:47.887Z,99779.00
2023-04-06T12:55:20.869Z,99783.00
2023-04-06T12:57:53.847Z,99763.00
2023-04-06T13:00:27.288Z,99750.00
2023-04-06T13:03:00.464Z,99748.00
2023-04-06T13:05:33.744Z,99741.00
2023-04-06T13:08:07.932Z,99742.00
2023-04-06T13:10:40.855Z,99735.00
2023-04-06T13:13:13.932Z,99733.00
2023-04-06T13:15:46.766Z,99737.00
2023-04-06T13:18:19.472Z,99735.00
2023-04-06T13:20:53.889Z,99738.00
2023-04-06T13:23:28.249Z,99739.00
2023-04-06T13:26:12.033Z,99733.00
2023-04-06T13:28:45.132Z,99725.00
2023-04-06T13:31:17.922Z,99723.00
2023-04-06T13:33:50.869Z,99730.00
2023-04-06T13:36:24.000Z,99719.00
2023-04-06T13:38:58.044Z,99721.00
2023-04-06T13:41:30.929Z,99715.00
2023-04-06T13:44:04.859Z,99717.00
2023-04-06T13:46:37.869Z,99703.00
2023-04-06T13:49:10.997Z,99702.00
2023-04-06T13:51:44.176Z,99706.00
2023-04-06T13:54:16.996Z,99704.00
2023-04-06T13:56:50.255Z,99699.00
2023-04-06T13:59:23.247Z,99693.00
2023-04-06T14:01:56.722Z,99703.00
2023-04-06T14:04:29.647Z,99700.00
2023-04-06T14:07:02.760Z,99692.00
2023-04-06T14:09:36.335Z,99698.00
2023-04-06T14:12:09.399Z,99688.00
2023-04-06T14:14:42.171Z,99690.00
2023-04-06T14:17:15.027Z,99684.00
2023-04-06T14:19:48.008Z,99683.00
2023-04-06T14:22:21.497Z,99689.00
2023-04-06T14:24:54.296Z,99691.00
2023-04-06T14:27:27.376Z,99692.00
2023-04-06T14:30:00.392Z,99687.00
2023-04-06T14:32:33.597Z,99694.00
2023-04-06T14:35:07.805Z,99698.00
2023-04-06T14:37:41.206Z,99694.00
2023-04-06T14:40:14.427Z,99688.00
2023-04-06T14:42:47.025Z,99688.00
2023-04-06T14:45:21.883Z,99695.00
2023-04-06T14:47:54.701Z,99679.00
2023-04-06T14:50:27.553Z,99682.00
2023-04-06T14:53:00.524Z,99677.00
2023-04-06T14:55:33.321Z,99673.00
2023-04-06T14:58:06.287Z,99666.00
2023-04-06T15:00:40.723Z,99663.00
2023-04-06T15:03:14.127Z,99666.00
2023-04-06T15:05:47.019Z,99671.00
2023-04-06T15:08:20.089Z,99673.00
2023-04-06T15:10:54.139Z,99673.00
2023-04-06T15:13:27.361Z,99671.00
2023-04-06T15:16:01.989Z,99676.00
2023-04-06T15:18:34.691Z,99672.00
2023-04-06T15:21:07.728Z,99681.00
2023-04-06T15:23:40.955Z,99679.00
2023-04-06T15:26:13.858Z,99684.00
2023-04-06T15:28:46.747Z,99688.00
2023-04-06T15:31:36.106Z,99689.00
2023-04-06T15:33:58.506Z,99689.00
2023-04-06T15:36:32.821Z,99684.00
2023-04-06T15:39:06.405Z,99694.00
2023-04-06T15:41:43.684Z,99688.00
2023-04-06T15:44:16.665Z,99682.00
2023-04-06T15:46:49.572Z,99684.00
2023-04-06T15:49:26.713Z,99687.00
2023-04-06T15:51:59.528Z,99688.00
2023-04-06T15:54:32.368Z,99684.00
2023-04-06T15:57:05.037Z,99693.00
2023-04-06T15:59:37.902Z,99698.00
2023-04-06T16:02:12.196Z,99702.00
2023-04-06T16:04:44.992Z,99700.00
2023-04-06T16:07:17.822Z,99711.00
2023-04-06T16:09:50.567Z,99711.00
2023-04-06T16:12:24.044Z,99720.00
2023-04-06T16:14:57.436Z,99710.00
2023-04-06T16:17:30.188Z,99711.00
2023-04-06T16:20:03.364Z,99717.00
2023-04-06T16:22:36.373Z,99720.00
2023-04-06T16:25:09.190Z,99714.00
2023-04-06T16:27:42.062Z,99714.00
2023-04-06T16:30:15.803Z,99715.00
2023-04-06T16:32:49.164Z,99710.00
2023-04-06T16:35:22.982Z,99719.00
2023-04-06T16:37:55.982Z,99719.00
2023-04-06T16:40:28.976Z,99710.00
2023-04-06T16:43:01.781Z,99714.00
2023-04-06T16:45:34.988Z,99703.00
2023-04-06T16:48:08.053Z,99714.00
2023-04-06T16:50:41.419Z,99710.00
2023-04-06T16:53:14.037Z,99711.00
2023-04-06T16:55:47.303Z,99707.00
2023-04-06T16:58:20.591Z,99714.00
2023-04-06T17:00:53.528Z,99713.00
2023-04-06T17:03:28.286Z,99710.00
2023-04-06T17:06:00.933Z,99709.00
2023-04-06T17:08:33.774Z,99708.00
2023-04-06T17:11:06.779Z,99715.00
2023-04-06T17:13:40.393Z,99713.00
2023-04-06T17:16:14.380Z,99715.00
2023-04-06T17:18:47.469Z,99716.00
2023-04-06T17:21:21.916Z,99718.00
2023-04-06T17:23:55.003Z,99726.00
2023-04-06T17:26:28.053Z,99728.00
2023-04-06T17:29:01.003Z,99726.00
2023-04-06T17:31:34.149Z,99714.00
2023-04-06T17:34:07.131Z,99725.00
2023-04-06T17:36:40.352Z,99724.00
2023-04-06T17:39:13.846Z,99726.00
2023-04-06T17:41:46.599Z,99728.00
2023-04-06T17:44:19.522Z,99733.00
2023-04-06T17:46:52.655Z,99736.00
2023-04-06T17:49:25.543Z,99747.00
2023-04-06T17:51:58.543Z,99742.00
2023-04-06T17:54:31.543Z,99744.00
2023-04-06T17:57:04.702Z,99744.00
2023-04-06T17:59:37.361Z,99751.00
2023-04-06T18:02:10.393Z,99754.00
2023-04-06T18:04:44.844Z,99764.00
2023-04-06T18:07:17.593Z,99763.00
2023-04-06T18:09:51.019Z,99766.00
2023-04-06T18:12:24.003Z,99767.00
2023-04-06T18:14:57.045Z,99768.00
2023-04-06T18:17:34.723Z,99779.00
2023-04-06T18:20:07.716Z,99777.00
2023-04-06T18:22:41.389Z,99776.00
2023-04-06T18:25:14.805Z,99781.00
2023-04-06T18:27:47.521Z,99788.00
2023-04-06T18:30:25.685Z,99786.00
2023-04-06T18:32:59.168Z,99780.00
2023-04-06T18:35:32.114Z,99779.00
2023-04-06T18:38:04.740Z,99781.00
2023-04-06T18:40:38.704Z,99768.00
2023-04-06T18:43:17.276Z,99768.00
2023-04-06T18:45:50.155Z,99775.00
2023-04-06T18:48:23.058Z,99777.00
2023-04-06T18:51:01.843Z,99777.00
2023-04-06T18:53:35.804Z,99778.00
2023-04-06T18:56:09.802Z,99779.00
2023-04-06T18:58:44.247Z,99787.00
2023-04-06T19:01:19.040Z,99799.00
2023-04-06T19:03:52.135Z,99799.00
2023-04-06T19:06:25.400Z,99804.00
2023-04-06T19:08:58.659Z,99824.00
2023-04-06T19:11:31.510Z,99822.00
2023-04-06T19:14:04.521Z,99825.00
2023-04-06T19:16:39.230Z,99830.00
2023-04-06T19:19:12.566Z,99834.00
2023-04-06T19:21:45.409Z,99829.00
2023-04-06T19:24:18.253Z,99840.00
2023-04-06T19:26:54.183Z,99845.00
2023-04-06T19:29:27.120Z,99843.00
2023-04-06T19:32:01.464Z,99848.00
2023-04-06T19:34:34.426Z,99842.00
2023-04-06T19:37:08.185Z,99852.00
2023-04-06T19:39:42.011Z,99840.00
2023-04-06T19:42:16.720Z,99843.00
2023-04-06T19:44:50.032Z,99841.00
2023-04-06T19:47:23.607Z,99846.00
2023-04-06T19:49:56.443Z,99847.00
2023-04-06T19:52:30.174Z,99849.00
2023-04-06T19:55:03.359Z,99849.00
2023-04-06T19:57:36.439Z,99849.00
2023-04-06T20:00:10.461Z,99853.00
2023-04-06T20:02:43.902Z,99847.00
2023-04-06T20:05:16.864Z,99854.00
2023-04-06T20:07:50.104Z,99865.00
2023-04-06T20:10:23.026Z,99864.00
2023-04-06T20:12:55.976Z,99870.00
2023-04-06T20:15:29.156Z,99869.00
2023-04-06T20:18:06.579Z,99869.00
2023-04-06T20:20:39.483Z,99869.00
2023-04-06T20:23:12.909Z,99864.00
2023-04-06T20:25:45.792Z,99861.00
2023-04-06T20:28:18.586Z,99864.00
2023-04-06T20:30:55.004Z,99869.00
2023-04-06T20:33:27.669Z,99867.00
2023-04-06T20:36:03.694Z,99860.00
2023-04-06T20:38:36.608Z,99870.00
2023-04-06T20:41:10.554Z,99871.00
2023-04-06T20:43:43.321Z,99878.00
2023-04-06T20:46:20.094Z,99880.00
2023-04-06T20:48:52.983Z,99886.00
2023-04-06T20:51:26.305Z,99893.00
2023-04-06T20:53:59.248Z,99883.00
2023-04-06T20:56:32.124Z,99887.00
2023-04-06T20:59:06.155Z,99895.00
2023-04-06T21:01:39.084Z,99884.00
2023-04-06T21:04:12.088Z,99885.00
2023-04-06T21:06:45.009Z,99882.00
2023-04-06T21:09:17.875Z,99882.00
2023-04-06T21:11:50.710Z,99884.00
2023-04-06T21:14:24.542Z,99877.00
2023-04-06T21:16:57.897Z,99875.00
2023-04-06T21:19:31.413Z,99883.00
2023-04-06T21:22:04.287Z,99884.00
2023-04-06T21:24:37.015Z,99872.00
2023-04-06T21:27:10.180Z,99886.00
2023-04-06T21:29:43.284Z,99883.00
2023-04-06T21:32:16.096Z,99885.00
2023-04-06T21:34:48.953Z,99890.00
2023-04-06T21:37:22.340Z,99906.00
2023-04-06T21:39:56.544Z,99931.00
2023-04-06T21:42:29.370Z,99928.00
2023-04-06T21:45:02.126Z,99937.00
2023-04-06T21:47:34.944Z,99933.00
2023-04-06T21:50:08.042Z,99925.00
2023-04-06T21:52:45.117Z,99921.00
2023-04-06T21:55:18.071Z,99920.00
2023-04-06T21:57:50.996Z,99920.00
2023-04-06T22:00:24.412Z,99917.00
2023-04-06T22:02:57.580Z,99923.00
2023-04-06T22:05:30.568Z,99918.00
2023-04-06T22:08:04.456Z,99920.00
2023-04-06T22:10:37.381Z,99913.00
2023-04-06T22:13:10.221Z,99917.00
2023-04-06T22:15:47.317Z,99917.00
2023-04-06T22:18:20.138Z,99918.00
2023-04-06T22:20:53.404Z,99917.00
2023-04-06T22:23:28.788Z,99917.00
2023-04-06T22:26:01.593Z,99922.00
2023-04-06T22:28:34.459Z,99928.00
2023-04-06T22:31:07.160Z,99921.00
2023-04-06T22:33:40.134Z,99925.00
2023-04-06T22:36:13.289Z,99928.00
2023-04-06T22:38:48.405Z,99941.00
2023-04-06T22:41:21.192Z,99933.00
2023-04-06T22:43:54.069Z,99926.00
2023-04-06T22:46:26.906Z,99925.00
2023-04-06T22:48:59.637Z,99921.00
2023-04-06T22:51:33.740Z,99922.00
2023-04-06T22:54:06.422Z,99917.00
2023-04-06T22:56:39.309Z,99924.00
2023-04-06T22:59:12.457Z,99915.00
2023-04-06T23:01:45.210Z,99912.00
2023-04-06T23:04:18.616Z,99901.00
2023-04-06T23:06:51.602Z,99895.00
2023-04-06T23:09:24.624Z,99890.00
2023-04-06T23:11:58.472Z,99890.00
2023-04-06T23:14:31.261Z,99889.00
2023-04-06T23:17:04.092Z,99889.00
2023-04-06T23:19:37.165Z,99887.00
2023-04-06T23:22:10.359Z,99882.00
2023-04-06T23:24:43.359Z,99874.00
2023-04-06T23:27:16.281Z,99867.00
2023-04-06T23:29:51.422Z,99862.00
2023-04-06T23:32:24.357Z,99859.00
2023-04-06T23:34:56.992Z,99864.00
2023-04-06T23:37:29.769Z,99849.00
2023-04-06T23:40:03.799Z,99863.00
2023-04-06T23:42:36.787Z,99847.00
2023-04-06T23:45:13.453Z,99847.00
2023-04-06T23:47:47.443Z,99847.00
2023-04-06T23:50:20.452Z,99846.00
2023-04-06T23:52:53.665Z,99844.00
2023-04-06T23:55:26.529Z,99838.00
2023-04-06T23:57:59.305Z,99836.00
